Time;durP1;ratioP1;P1;durP2;ratioP2;P2;SDS_P1;SDS_P2;PMS_P1;PMS_P2;Temp;Humidity;BMP_temperature;BMP_pressure;BME280_temperature;BME280_humidity;BME280_pressure;Samples;Min_cycle;Max_cycle;Signal;HPM_P1;HPM_P2
2023/09/16 00:01:33;;;;;;;3.37;2.93;;;10.30;99.90;9.50;101291;;;;575171;245;24088;-77
2023/09/16 00:04:00;;;;;;;5.77;3.27;;;10.30;99.90;9.50;101294;;;;575032;245;24067;-77
2023/09/16 00:06:28;;;;;;;6.30;3.00;;;10.30;99.90;9.40;101286;;;;583517;245;24049;-77
2023/09/16 00:08:56;;;;;;;3.43;2.90;;;10.20;99.90;9.40;101288;;;;575119;245;24069;-77
2023/09/16 00:11:25;;;;;;;3.53;3.23;;;10.20;99.90;9.30;101286;;;;575835;245;24120;-76
2023/09/16 00:13:52;;;;;;;4.37;3.03;;;10.10;99.90;9.30;101288;;;;575782;245;24098;-77
2023/09/16 00:16:20;;;;;;;5.10;2.97;;;10.00;99.90;9.20;101282;;;;575156;245;24065;-76
2023/09/16 00:18:48;;;;;;;5.10;3.50;;;10.00;99.90;9.20;101280;;;;575140;245;24070;-77
2023/09/16 00:21:16;;;;;;;3.83;3.50;;;9.90;99.90;9.10;101275;;;;575098;245;24098;-78
2023/09/16 00:23:43;;;;;;;4.40;3.67;;;9.90;99.90;9.10;101279;;;;575091;245;24085;-78
2023/09/16 00:26:13;;;;;;;2.97;2.77;;;9.90;99.90;9.00;101283;;;;575174;245;24066;-79
2023/09/16 00:28:40;;;;;;;3.60;3.30;;;9.80;99.90;9.00;101283;;;;568952;245;24107;-77
2023/09/16 00:31:11;;;;;;;3.07;2.73;;;9.70;99.90;8.90;101275;;;;575087;245;24116;-78
2023/09/16 00:33:39;;;;;;;2.97;2.77;;;9.70;99.90;8.90;101283;;;;575164;245;24086;-77
2023/09/16 00:36:04;;;;;;;3.13;2.90;;;9.70;99.90;8.80;101275;;;;574544;245;24103;-77
2023/09/16 00:38:34;;;;;;;4.20;3.20;;;9.60;99.90;8.80;101279;;;;575484;245;24073;-78
2023/09/16 00:41:02;;;;;;;3.30;3.00;;;9.60;99.90;8.80;101282;;;;576331;245;24198;-77
2023/09/16 00:43:28;;;;;;;5.13;3.23;;;9.60;99.90;8.70;101284;;;;575842;245;24121;-78
2023/09/16 00:45:55;;;;;;;3.50;3.20;;;9.50;99.90;8.70;101278;;;;570537;245;24065;-77
2023/09/16 00:48:27;;;;;;;6.23;3.13;;;9.50;99.90;8.70;101280;;;;575734;245;24149;-77
2023/09/16 00:50:51;;;;;;;3.73;3.43;;;9.50;99.90;8.70;101285;;;;584084;245;24083;-77
2023/09/16 00:53:19;;;;;;;5.43;2.90;;;9.50;99.90;8.70;101283;;;;572321;245;24138;-78
2023/09/16 00:55:47;;;;;;;3.67;3.37;;;9.50;99.90;8.70;101285;;;;575572;245;24065;-77
2023/09/16 00:58:17;;;;;;;3.43;3.13;;;9.50;99.90;8.70;101289;;;;575305;245;24086;-78
2023/09/16 01:00:44;;;;;;;6.17;3.27;;;9.40;99.90;8.70;101284;;;;575139;245;24080;-78
2023/09/16 01:03:12;;;;;;;4.07;3.43;;;9.40;99.90;8.60;101284;;;;575308;245;24134;-77
2023/09/16 01:05:40;;;;;;;4.87;3.10;;;9.40;99.90;8.60;101280;;;;574913;245;24120;-77
2023/09/16 01:08:10;;;;;;;3.37;3.07;;;9.40;99.90;8.60;101278;;;;575014;245;24096;-78
2023/09/16 01:10:40;;;;;;;5.00;3.20;;;9.40;99.90;8.60;101282;;;;575294;245;24076;-78
2023/09/16 01:13:04;;;;;;;7.60;3.37;;;9.40;99.90;8.60;101280;;;;574860;245;24219;-77
2023/09/16 01:15:33;;;;;;;4.40;3.40;;;9.30;99.90;8.60;101279;;;;569742;245;24086;-78
2023/09/16 01:18:12;;;;;;;4.30;3.60;;;9.30;99.90;8.50;101275;;;;576314;245;24058;-77
2023/09/16 01:20:40;;;;;;;4.93;3.57;;;9.30;99.90;8.60;101276;;;;577956;245;24126;-78
2023/09/16 01:23:08;;;;;;;7.13;3.47;;;9.30;99.90;8.60;101273;;;;574563;245;24135;-78
2023/09/16 01:25:37;;;;;;;4.00;3.60;;;9.40;99.90;8.70;101272;;;;578898;245;24155;-77
2023/09/16 01:28:04;;;;;;;3.13;2.83;;;9.50;99.90;8.70;101271;;;;574680;245;24084;-79
2023/09/16 01:30:33;;;;;;;4.13;3.30;;;9.50;99.90;8.80;101279;;;;577923;245;24095;-76
2023/09/16 01:33:04;;;;;;;5.77;3.10;;;9.50;99.90;8.70;101275;;;;575980;245;24061;-78
2023/09/16 01:35:29;;;;;;;4.23;2.77;;;9.60;99.90;8.70;101278;;;;580252;245;24136;-78
2023/09/16 01:37:57;;;;;;;3.43;2.57;;;9.40;99.90;8.60;101273;;;;576425;245;24112;-77
2023/09/16 01:40:30;;;;;;;3.00;2.50;;;9.40;99.90;8.60;101276;;;;575027;245;25119;-78
2023/09/16 01:42:53;;;;;;;5.25;3.78;;;9.40;99.90;8.70;101276;;;;568902;245;35146;-78
2023/09/16 01:45:21;;;;;;;6.60;3.43;;;9.40;99.90;8.60;101275;;;;583399;245;24126;-77
2023/09/16 01:47:52;;;;;;;5.57;3.10;;;9.50;99.90;8.60;101265;;;;574864;245;24156;-78
2023/09/16 01:50:17;;;;;;;4.47;3.00;;;9.50;99.90;8.60;101265;;;;584064;244;24136;-78
2023/09/16 01:52:45;;;;;;;4.73;2.80;;;9.50;99.90;8.60;101265;;;;575866;245;24147;-78
2023/09/16 01:55:13;;;;;;;3.17;2.70;;;9.50;99.90;8.60;101273;;;;575600;245;24071;-78
2023/09/16 01:57:41;;;;;;;3.40;2.90;;;9.40;99.90;8.50;101282;;;;575423;245;24061;-78
2023/09/16 02:00:09;;;;;;;4.93;2.40;;;9.40;99.90;8.50;101273;;;;575320;245;24109;-77
2023/09/16 02:02:37;;;;;;;5.87;3.20;;;9.30;99.90;8.50;101266;;;;579336;245;24132;-78
2023/09/16 02:05:05;;;;;;;2.33;2.10;;;9.30;99.90;8.40;101270;;;;575247;245;24124;-77
2023/09/16 02:07:33;;;;;;;3.13;2.73;;;9.20;99.90;8.40;101265;;;;575581;245;24084;-78
2023/09/16 02:10:03;;;;;;;3.93;2.90;;;9.20;99.90;8.30;101263;;;;575319;245;24142;-77
2023/09/16 02:12:29;;;;;;;3.50;2.43;;;9.10;99.90;8.30;101264;;;;574998;245;24131;-77
2023/09/16 02:14:57;;;;;;;3.43;3.13;;;9.10;99.90;8.30;101269;;;;574929;245;24120;-78
2023/09/16 02:17:25;;;;;;;11.53;3.20;;;9.10;99.90;8.30;101260;;;;569707;245;24056;-78
2023/09/16 02:19:53;;;;;;;5.87;4.00;;;9.00;99.90;8.20;101260;;;;574999;245;24077;-77
2023/09/16 02:22:21;;;;;;;4.63;4.23;;;9.00;99.90;8.20;101249;;;;574867;245;24142;-79
2023/09/16 02:24:49;;;;;;;5.73;4.57;;;9.00;99.90;8.20;101253;;;;575005;245;24086;-77
2023/09/16 02:27:20;;;;;;;4.10;3.57;;;9.00;99.90;8.30;101267;;;;574597;245;24141;-78
2023/09/16 02:29:48;;;;;;;5.33;4.30;;;9.00;99.90;8.20;101257;;;;583492;245;24085;-77
2023/09/16 02:32:13;;;;;;;7.93;4.80;;;9.00;99.90;8.20;101261;;;;577712;245;24132;-78
2023/09/16 02:34:41;;;;;;;7.90;4.57;;;9.00;99.90;8.20;101251;;;;574832;245;24069;-77
2023/09/16 02:37:09;;;;;;;6.73;4.40;;;9.00;99.90;8.20;101256;;;;575184;245;24061;-78
2023/09/16 02:39:37;;;;;;;4.97;4.37;;;9.00;99.90;8.20;101255;;;;575113;245;24090;-78
2023/09/16 02:42:05;;;;;;;4.73;4.30;;;9.00;99.90;8.10;101259;;;;575102;245;24058;-77
2023/09/16 02:44:33;;;;;;;6.47;4.47;;;8.90;99.90;8.10;101253;;;;575177;249;24155;-78
2023/09/16 02:47:00;;;;;;;4.83;4.43;;;8.90;99.90;8.10;101245;;;;560419;251;24083;-77
2023/09/16 02:49:29;;;;;;;7.10;5.23;;;8.90;99.90;8.10;101249;;;;574354;245;24093;-78
2023/09/16 02:51:56;;;;;;;5.20;4.33;;;8.90;99.90;8.10;101256;;;;574619;245;24189;-79
2023/09/16 02:54:24;;;;;;;6.27;4.50;;;8.90;99.90;8.10;101258;;;;574800;245;24132;-77
2023/09/16 02:56:53;;;;;;;5.00;4.50;;;8.80;99.90;8.00;101257;;;;574658;245;24080;-78
2023/09/16 02:59:21;;;;;;;6.37;5.00;;;8.80;99.90;8.00;101257;;;;574841;245;24091;-77
2023/09/16 03:01:52;;;;;;;5.37;4.53;;;8.80;99.90;8.00;101257;;;;575555;245;24051;-78
2023/09/16 03:04:17;;;;;;;5.07;4.67;;;8.80;99.90;8.00;101265;;;;576275;245;24084;-77
2023/09/16 03:06:44;;;;;;;5.20;4.80;;;8.70;99.90;7.90;101261;;;;575642;245;24111;-78
2023/09/16 03:09:12;;;;;;;8.93;5.17;;;8.70;99.90;7.90;101265;;;;575948;245;24106;-77
2023/09/16 03:11:40;;;;;;;7.30;4.97;;;8.70;99.90;7.90;101263;;;;575702;245;24115;-76
2023/09/16 03:14:08;;;;;;;6.07;5.10;;;8.70;99.90;7.80;101260;;;;575243;245;24081;-77
2023/09/16 03:16:36;;;;;;;5.03;4.63;;;8.70;99.90;7.80;101261;;;;575374;245;24065;-78
2023/09/16 03:19:04;;;;;;;5.23;4.73;;;8.60;99.90;7.80;101255;;;;575283;245;24054;-77
2023/09/16 03:21:32;;;;;;;5.07;4.63;;;8.60;99.90;7.80;101255;;;;574967;245;24148;-77
2023/09/16 03:24:00;;;;;;;9.37;5.43;;;8.60;99.90;7.80;101252;;;;575017;245;24054;-77
2023/09/16 03:26:28;;;;;;;5.27;4.77;;;8.50;99.90;7.80;101253;;;;574981;245;24105;-78
2023/09/16 03:28:56;;;;;;;6.23;4.80;;;8.60;99.90;7.70;101248;;;;575132;245;24068;-78
2023/09/16 03:31:24;;;;;;;5.50;5.00;;;8.50;99.90;7.70;101245;;;;574966;245;24052;-76
2023/09/16 03:33:51;;;;;;;6.57;5.20;;;8.50;99.90;7.70;101244;;;;575361;245;24127;-77
2023/09/16 03:36:22;;;;;;;4.83;4.40;;;8.50;99.90;7.70;101242;;;;575057;245;24117;-77
2023/09/16 03:38:47;;;;;;;7.70;5.30;;;8.50;99.90;7.70;101236;;;;574701;245;25106;-77
2023/09/16 03:41:16;;;;;;;6.37;5.47;;;8.50;99.90;7.70;101231;;;;576384;245;24136;-77
2023/09/16 03:43:43;;;;;;;5.97;5.37;;;8.50;99.90;7.80;101241;;;;574957;245;24073;-77
2023/09/16 03:46:12;;;;;;;6.13;5.33;;;8.60;99.90;7.80;101240;;;;578089;245;24060;-77
2023/09/16 03:48:40;;;;;;;9.13;5.43;;;8.60;99.90;7.80;101235;;;;574728;245;24097;-78
2023/09/16 03:51:07;;;;;;;8.87;5.40;;;8.60;99.90;7.80;101239;;;;574635;245;24080;-78
2023/09/16 03:53:39;;;;;;;6.53;5.13;;;8.70;99.90;7.90;101240;;;;578903;245;24080;-78
2023/09/16 03:56:08;;;;;;;6.43;5.20;;;8.70;99.90;7.90;101234;;;;574564;245;24193;-77
2023/09/16 03:58:34;;;;;;;5.57;5.07;;;8.70;99.90;7.90;101241;;;;583417;245;24100;-78
2023/09/16 04:01:03;;;;;;;5.40;4.83;;;8.80;99.90;8.10;101233;;;;568523;245;24131;-78
2023/09/16 04:03:33;;;;;;;7.50;5.47;;;8.80;99.90;8.20;101242;;;;574812;245;24087;-77
2023/09/16 04:06:03;;;;;;;7.90;5.07;;;8.90;99.90;8.20;101234;;;;574693;245;24101;-78
2023/09/16 04:08:30;;;;;;;4.73;4.10;;;9.10;99.90;8.30;101237;;;;574603;245;24143;-77
2023/09/16 04:10:58;;;;;;;4.53;3.60;;;9.00;99.90;8.40;101239;;;;578309;245;24118;-77
2023/09/16 04:13:26;;;;;;;8.00;3.77;;;9.10;99.90;8.50;101242;;;;575993;245;24085;-77
2023/09/16 04:15:54;;;;;;;4.40;3.23;;;9.20;99.90;8.50;101238;;;;576032;245;24063;-77
2023/09/16 04:18:22;;;;;;;5.33;4.17;;;9.20;99.90;8.50;101243;;;;575605;245;24108;-77
2023/09/16 04:20:55;;;;;;;6.67;3.87;;;9.20;99.90;8.50;101235;;;;575887;245;25161;-78
2023/09/16 04:23:17;;;;;;;5.70;3.63;;;9.20;99.90;8.50;101228;;;;575136;245;24103;-78
2023/09/16 04:25:45;;;;;;;6.30;4.70;;;9.20;99.90;8.50;101235;;;;575287;245;24188;-79
2023/09/16 04:28:15;;;;;;;4.33;3.63;;;9.20;99.90;8.50;101232;;;;575462;245;24073;-77
2023/09/16 04:30:41;;;;;;;6.10;4.33;;;9.30;99.90;8.50;101231;;;;575147;245;24060;-77
2023/09/16 04:33:09;;;;;;;4.60;4.20;;;9.20;99.90;8.40;101231;;;;576498;245;25183;-78
2023/09/16 04:35:37;;;;;;;4.00;3.70;;;9.20;99.90;8.40;101225;;;;575008;245;24101;-78
2023/09/16 04:38:05;;;;;;;5.17;3.23;;;9.20;99.90;8.40;101224;;;;575531;245;24140;-78
2023/09/16 04:40:33;;;;;;;4.23;3.80;;;9.10;99.90;8.40;101218;;;;575090;245;24070;-78
2023/09/16 04:43:03;;;;;;;3.60;3.30;;;9.10;99.90;8.40;101223;;;;569123;245;24093;-77
2023/09/16 04:45:29;;;;;;;9.77;3.63;;;9.10;99.90;8.40;101231;;;;575277;245;24056;-78
2023/09/16 04:47:57;;;;;;;5.53;3.90;;;9.20;99.90;8.50;101220;;;;574919;245;24072;-78
2023/09/16 04:50:25;;;;;;;5.43;3.70;;;9.20;99.90;8.50;101230;;;;575019;245;24102;-78
2023/09/16 04:52:52;;;;;;;3.93;3.27;;;9.30;99.90;8.50;101223;;;;574630;245;24085;-78
2023/09/16 04:55:20;;;;;;;4.03;3.10;;;9.30;99.90;8.50;101225;;;;574606;245;25139;-78
2023/09/16 04:57:48;;;;;;;3.47;2.90;;;9.30;99.90;8.60;101214;;;;574641;245;24156;-78
2023/09/16 05:00:21;;;;;;;4.30;3.60;;;9.40;99.90;8.70;101216;;;;574686;245;24086;-77
2023/09/16 05:02:50;;;;;;;4.17;3.57;;;9.40;99.90;8.70;101224;;;;574260;245;24085;-78
2023/09/16 05:05:19;;;;;;;3.77;2.80;;;9.40;99.90;8.70;101219;;;;574606;245;24160;-77
2023/09/16 05:07:43;;;;;;;8.37;3.50;;;9.50;99.90;8.80;101224;;;;574326;245;24143;-77
2023/09/16 05:10:12;;;;;;;3.07;2.87;;;9.50;99.90;8.90;101225;;;;574726;245;24118;-78
2023/09/16 05:12:41;;;;;;;5.77;3.13;;;9.60;99.90;8.90;101228;;;;575073;245;24118;-78
2023/09/16 05:15:07;;;;;;;5.70;3.90;;;9.70;99.90;9.00;101232;;;;575151;245;24089;-79
2023/09/16 05:17:36;;;;;;;3.67;3.17;;;9.70;99.90;9.10;101227;;;;574773;245;24197;-78
2023/09/16 05:20:03;;;;;;;3.77;3.07;;;9.80;99.90;9.20;101239;;;;574846;245;24100;-78
2023/09/16 05:22:30;;;;;;;6.87;3.23;;;9.90;99.90;9.70;101233;;;;577935;245;24108;-79
2023/09/16 05:24:59;;;;;;;4.07;3.20;;;11.70;99.90;11.40;101233;;;;575569;245;24144;-78
2023/09/16 05:27:27;;;;;;;4.50;3.23;;;11.70;99.90;13.40;101252;;;;575982;245;24069;-78
2023/09/16 05:29:56;;;;;;;3.50;3.20;;;13.60;99.90;15.40;101254;;;;575600;245;24108;-78
2023/09/16 05:32:23;;;;;;;4.00;3.10;;;15.60;99.90;17.10;101257;;;;575531;245;24050;-79
2023/09/16 05:34:51;;;;;;;4.73;2.87;;;17.40;99.90;18.70;101263;;;;575349;245;24084;-78
2023/09/16 05:37:19;;;;;;;2.43;2.23;;;19.10;99.90;20.30;101261;;;;575173;245;24123;-77
2023/09/16 05:39:47;;;;;;;6.73;2.43;;;20.60;99.90;21.40;101260;;;;575293;245;24092;-78
2023/09/16 05:42:15;;;;;;;3.10;2.50;;;21.90;99.90;22.50;101261;;;;575185;245;24082;-78
2023/09/16 05:44:43;;;;;;;2.27;2.10;;;24.00;99.90;23.60;101257;;;;575318;245;24121;-79
2023/09/16 05:47:11;;;;;;;3.20;2.30;;;23.90;99.90;24.50;101251;;;;575422;245;24148;-78
2023/09/16 05:49:39;;;;;;;2.50;2.30;;;24.90;97.80;25.10;101243;;;;575108;245;23100;-78
2023/09/16 05:52:07;;;;;;;2.17;2.07;;;25.70;94.40;25.80;101249;;;;575019;245;23075;-78
2023/09/16 05:54:35;;;;;;;3.13;2.40;;;26.30;90.90;26.80;101253;;;;574954;245;23088;-78
2023/09/16 05:57:03;;;;;;;2.63;2.40;;;27.10;84.10;27.30;101258;;;;575133;245;23085;-78
2023/09/16 05:59:31;;;;;;;4.35;2.70;;;27.70;79.80;27.70;101257;;;;568425;245;23103;-78
2023/09/16 06:01:59;;;;;;;2.53;2.17;;;28.30;77.00;28.40;101262;;;;574838;245;23063;-79
2023/09/16 06:04:27;;;;;;;2.63;2.43;;;28.90;72.60;29.10;101265;;;;574696;245;24100;-79
2023/09/16 06:06:54;;;;;;;3.67;2.75;;;29.60;68.90;29.70;101258;;;;574562;245;24140;-79
2023/09/16 06:09:22;;;;;;;2.37;2.15;;;30.10;65.30;29.90;101272;;;;574783;245;23175;-77
2023/09/16 06:11:50;;;;;;;3.30;3.00;;;30.50;63.10;30.30;101269;;;;574700;245;24107;-78
2023/09/16 06:14:18;;;;;;;2.47;2.28;;;30.90;61.20;31.00;101273;;;;575046;245;23108;-79
2023/09/16 06:16:46;;;;;;;3.33;2.33;;;31.40;59.20;31.20;101270;;;;575156;245;23088;-79
2023/09/16 06:19:14;;;;;;;2.70;2.50;;;31.80;58.30;31.70;101274;;;;574605;245;24127;-78
2023/09/16 06:21:45;;;;;;;5.37;2.80;;;32.20;57.00;32.20;101282;;;;574631;245;23186;-78
2023/09/16 06:24:10;;;;;;;5.43;2.70;;;32.60;56.60;32.70;101279;;;;574477;245;24152;-78
2023/09/16 06:26:38;;;;;;;2.58;2.15;;;33.10;55.20;33.10;101286;;;;574787;245;23065;-78
2023/09/16 06:29:06;;;;;;;4.10;2.55;;;33.60;53.70;33.50;101293;;;;574769;245;23134;-78
2023/09/16 06:31:34;;;;;;;3.15;2.90;;;34.00;53.20;34.10;101286;;;;574849;245;24127;-80
2023/09/16 06:34:02;;;;;;;4.05;2.58;;;34.50;52.40;34.50;101287;;;;574774;245;23122;-79
2023/09/16 06:36:30;;;;;;;4.57;2.58;;;35.30;50.80;34.80;101289;;;;575436;245;23079;-78
2023/09/16 06:39:00;;;;;;;4.00;2.80;;;35.60;50.10;35.10;101292;;;;576001;245;23066;-78
2023/09/16 06:41:28;;;;;;;4.87;2.55;;;35.90;49.00;35.40;101289;;;;575533;245;23072;-80
2023/09/16 06:43:56;;;;;;;5.35;3.00;;;35.80;48.90;35.80;101296;;;;575804;245;23087;-78
2023/09/16 06:46:23;;;;;;;4.15;2.40;;;36.20;48.10;36.00;101294;;;;575690;245;23059;-79
2023/09/16 06:48:51;;;;;;;3.87;2.33;;;36.40;47.40;36.20;101293;;;;575624;245;23071;-79
2023/09/16 06:51:21;;;;;;;3.47;3.17;;;36.50;46.90;36.40;101285;;;;570283;245;35181;-79
2023/09/16 06:53:49;;;;;;;2.65;2.45;;;36.70;46.80;36.90;101290;;;;575140;245;23084;-79
2023/09/16 06:56:17;;;;;;;2.62;2.37;;;37.60;46.00;37.20;101296;;;;575141;245;23075;-80
2023/09/16 06:58:45;;;;;;;3.90;3.20;;;37.50;46.60;37.70;101294;;;;574956;245;24172;-80
2023/09/16 07:01:13;;;;;;;6.53;2.78;;;37.90;45.10;37.70;101301;;;;575129;245;23116;-78
2023/09/16 07:03:41;;;;;;;5.57;2.78;;;38.10;44.90;38.10;101306;;;;574916;245;23101;-78
2023/09/16 07:06:09;;;;;;;3.00;2.65;;;38.40;45.20;38.60;101300;;;;574932;245;23067;-78
2023/09/16 07:08:37;;;;;;;3.55;2.87;;;38.80;44.50;39.20;101294;;;;575016;245;23111;-80
2023/09/16 07:11:05;;;;;;;4.45;2.80;;;39.40;43.40;39.60;101298;;;;574991;245;23121;-79
2023/09/16 07:13:33;;;;;;;4.75;3.05;;;39.80;42.90;39.80;101299;;;;569806;245;35114;-78
2023/09/16 07:16:01;;;;;;;4.32;2.85;;;40.10;42.00;39.60;101301;;;;575126;245;23071;-79
2023/09/16 07:18:29;;;;;;;3.10;2.80;;;40.00;42.00;39.80;101296;;;;575144;245;23068;-79
2023/09/16 07:20:57;;;;;;;5.68;3.12;;;40.20;41.60;39.90;101300;;;;574848;245;23156;-79
2023/09/16 07:23:27;;;;;;;2.80;2.60;;;40.20;41.10;39.80;101304;;;;574733;245;23117;-79
2023/09/16 07:25:55;;;;;;;3.28;3.08;;;40.30;41.90;39.90;101306;;;;574694;245;23172;-79
2023/09/16 07:28:25;;;;;;;5.90;2.90;;;40.30;41.00;39.60;101310;;;;574548;245;23088;-81
2023/09/16 07:30:57;;;;;;;5.18;2.95;;;40.10;41.00;39.50;101307;;;;574765;245;23112;-79
2023/09/16 07:33:21;;;;;;;5.55;2.87;;;40.00;41.10;39.70;101307;;;;574225;245;23094;-79
2023/09/16 07:35:51;;;;;;;5.70;3.00;;;40.10;42.10;39.70;101306;;;;574794;245;23074;-80
2023/09/16 07:38:18;;;;;;;3.25;2.83;;;40.10;41.50;40.00;101309;;;;574776;245;23130;-80
2023/09/16 07:40:46;;;;;;;4.50;2.72;;;40.30;40.60;39.60;101311;;;;574674;245;24212;-79
2023/09/16 07:43:16;;;;;;;4.07;3.10;;;40.20;41.10;39.20;101311;;;;579467;245;35181;-79
2023/09/16 07:45:42;;;;;;;3.20;2.90;;;39.90;41.60;39.40;101317;;;;575065;245;23088;-78
2023/09/16 07:48:10;;;;;;;3.95;3.05;;;39.90;41.50;39.70;101312;;;;575897;245;23055;-79
2023/09/16 07:50:37;;;;;;;3.72;3.00;;;40.10;40.90;40.30;101311;;;;576289;245;23067;-78
2023/09/16 07:53:05;;;;;;;10.43;3.17;;;40.60;40.70;40.70;101307;;;;575439;245;23059;-78
2023/09/16 07:55:33;;;;;;;3.15;2.85;;;41.00;39.90;40.70;101315;;;;575522;245;23103;-79
2023/09/16 07:58:01;;;;;;;6.37;3.12;;;41.20;39.80;40.80;101302;;;;575299;245;23099;-79
2023/09/16 08:00:29;;;;;;;6.87;2.90;;;41.30;39.80;40.90;101307;;;;575360;245;23063;-79
2023/09/16 08:02:57;;;;;;;4.68;3.17;;;41.40;39.60;41.10;101299;;;;575246;245;23071;-79
2023/09/16 08:05:26;;;;;;;7.90;2.90;;;41.90;39.10;41.50;101308;;;;575091;245;23127;-79
2023/09/16 08:07:54;;;;;;;4.30;2.95;;;41.90;39.00;42.00;101308;;;;568299;245;23096;-79
2023/09/16 08:10:22;;;;;;;3.62;2.83;;;42.30;38.50;41.90;101303;;;;574850;245;23063;-79
2023/09/16 08:12:49;;;;;;;4.10;2.60;;;42.60;38.40;42.10;101308;;;;575044;245;23068;-79
2023/09/16 08:15:17;;;;;;;10.32;3.05;;;42.80;38.20;42.90;101304;;;;574881;245;23120;-80
2023/09/16 08:17:45;;;;;;;2.83;2.62;;;43.40;38.50;43.30;101302;;;;575281;245;23048;-79
2023/09/16 08:20:15;;;;;;;3.10;2.90;;;43.90;37.80;43.50;101297;;;;575345;245;23059;-80
2023/09/16 08:22:41;;;;;;;3.30;3.00;;;44.20;37.20;43.30;101298;;;;574869;245;23121;-79
2023/09/16 08:25:09;;;;;;;3.35;3.08;;;44.20;37.10;43.40;101302;;;;574844;245;23070;-79
2023/09/16 08:27:37;;;;;;;7.90;3.62;;;44.30;37.70;43.50;101301;;;;574663;245;24134;-79
2023/09/16 08:30:09;;;;;;;3.70;3.30;;;44.50;36.50;42.90;101302;;;;574828;245;23090;-78
2023/09/16 08:32:35;;;;;;;3.42;3.17;;;44.00;37.20;42.50;101308;;;;574342;245;23101;-79
2023/09/16 08:35:01;;;;;;;5.05;3.37;;;43.70;37.20;41.90;101306;;;;574770;245;23157;-79
2023/09/16 08:37:29;;;;;;;5.95;3.17;;;43.30;37.30;41.70;101307;;;;574747;245;23088;-79
2023/09/16 08:39:57;;;;;;;5.10;3.28;;;43.00;37.70;41.40;101311;;;;574770;245;24093;-78
2023/09/16 08:42:24;;;;;;;3.75;3.10;;;42.60;37.80;41.30;101312;;;;574942;245;23099;-78
2023/09/16 08:44:52;;;;;;;6.43;3.37;;;42.50;38.80;41.00;101306;;;;574629;245;24175;-78
2023/09/16 08:47:29;;;;;;;5.50;3.35;;;42.20;38.10;41.30;101307;;;;574692;245;23075;-79
2023/09/16 08:49:57;;;;;;;4.20;3.00;;;42.50;38.60;41.20;101306;;;;574745;245;24064;-79
2023/09/16 08:52:25;;;;;;;5.62;3.60;;;42.50;38.40;41.40;101308;;;;567946;245;23137;-79
2023/09/16 08:54:53;;;;;;;4.40;3.33;;;42.60;38.10;41.20;101306;;;;568146;245;23079;-79
2023/09/16 08:57:21;;;;;;;5.15;3.15;;;42.50;38.00;41.00;101293;;;;563251;245;37626;-79
2023/09/16 08:59:50;;;;;;;5.60;3.50;;;42.60;38.90;41.30;101293;;;;570562;245;35165;-80
2023/09/16 09:02:21;;;;;;;5.50;3.83;;;42.80;38.00;41.30;101298;;;;569092;245;23154;-79
2023/09/16 09:04:47;;;;;;;7.37;3.33;;;42.60;38.60;41.10;101296;;;;575241;245;23126;-80
2023/09/16 09:07:18;;;;;;;8.60;3.70;;;42.70;38.20;41.00;101281;;;;575459;245;23103;-79
2023/09/16 09:09:43;;;;;;;6.95;3.08;;;42.70;38.00;40.70;101279;;;;575026;245;23083;-78
2023/09/16 09:12:14;;;;;;;4.50;2.87;;;42.40;38.10;40.30;101281;;;;575314;245;23081;-80
2023/09/16 09:14:39;;;;;;;4.55;3.78;;;42.10;38.70;40.30;101283;;;;574785;245;23094;-78
2023/09/16 09:17:08;;;;;;;3.65;3.30;;;42.00;38.60;39.80;101274;;;;575265;245;23106;-79
2023/09/16 09:19:39;;;;;;;4.95;3.00;;;41.60;38.80;39.50;101268;;;;575250;245;23119;-79
2023/09/16 09:22:03;;;;;;;4.85;3.20;;;41.30;39.00;38.70;101267;;;;575109;245;23109;-79
2023/09/16 09:24:31;;;;;;;4.35;2.75;;;40.30;40.10;38.30;101260;;;;575003;245;23125;-78
2023/09/16 09:27:01;;;;;;;3.97;2.92;;;40.00;40.30;38.20;101262;;;;574894;245;23118;-78
2023/09/16 09:29:28;;;;;;;5.70;2.75;;;40.00;40.30;39.10;101259;;;;574956;245;23088;-79
2023/09/16 09:31:56;;;;;;;3.42;3.12;;;40.50;40.50;39.40;101262;;;;574895;245;23071;-79
2023/09/16 09:34:25;;;;;;;2.92;2.72;;;41.10;40.00;39.70;101258;;;;575049;245;23193;-79
2023/09/16 09:36:54;;;;;;;5.60;3.00;;;41.30;39.50;39.70;101255;;;;567935;245;23080;-79
2023/09/16 09:39:22;;;;;;;6.03;3.08;;;41.30;39.50;39.90;101246;;;;574748;245;23073;-79
2023/09/16 09:41:52;;;;;;;7.72;3.58;;;41.60;39.40;39.90;101248;;;;574746;245;23085;-78
2023/09/16 09:44:21;;;;;;;3.08;2.70;;;41.80;39.10;39.00;101245;;;;574433;245;24087;-79
2023/09/16 09:46:45;;;;;;;3.12;2.53;;;41.40;39.20;38.70;101241;;;;574472;245;23176;-79
2023/09/16 09:49:15;;;;;;;5.28;2.65;;;41.00;39.70;38.60;101235;;;;575066;245;23126;-80
2023/09/16 09:51:43;;;;;;;2.62;2.42;;;40.80;40.20;38.10;101241;;;;575112;245;23103;-78
2023/09/16 09:54:10;;;;;;;6.30;2.87;;;40.50;40.30;37.70;101229;;;;575083;245;23091;-79
2023/09/16 09:56:37;;;;;;;4.70;2.62;;;40.10;40.60;37.20;101235;;;;569803;245;35092;-79
2023/09/16 09:59:08;;;;;;;2.42;2.22;;;39.60;41.20;37.10;101231;;;;574845;245;24094;-79
2023/09/16 10:01:36;;;;;;;3.22;2.70;;;39.30;41.40;36.90;101224;;;;574560;245;23213;-80
2023/09/16 10:04:04;;;;;;;3.00;2.60;;;39.10;41.60;36.80;101214;;;;574649;245;24254;-79
2023/09/16 10:06:30;;;;;;;3.50;2.85;;;38.60;42.00;36.30;101213;;;;579479;245;23091;-78
2023/09/16 10:09:02;;;;;;;4.90;2.10;;;38.70;42.10;35.50;101206;;;;574824;245;23198;-79
2023/09/16 10:11:32;;;;;;;5.55;2.50;;;38.00;42.20;34.70;101217;;;;575166;245;23121;-78
2023/09/16 10:13:57;;;;;;;6.85;2.95;;;37.10;43.40;33.20;101213;;;;575661;245;23113;-78
2023/09/16 10:16:25;;;;;;;2.65;2.40;;;33.80;46.40;31.20;101207;;;;575748;245;24079;-79
2023/09/16 10:18:53;;;;;;;4.00;2.15;;;33.70;46.30;29.70;101203;;;;575789;245;23126;-78
2023/09/16 10:21:21;;;;;;;5.90;2.50;;;31.90;48.70;28.30;101208;;;;575486;245;23059;-78
2023/09/16 10:23:49;;;;;;;4.22;2.53;;;30.30;52.00;26.80;101182;;;;568958;245;23079;-78
2023/09/16 10:26:17;;;;;;;2.40;1.95;;;28.70;54.30;25.80;101192;;;;575353;245;23107;-78
2023/09/16 10:28:46;;;;;;;9.80;2.37;;;27.30;56.40;25.00;101173;;;;575444;245;23116;-78
2023/09/16 10:31:16;;;;;;;2.63;2.27;;;26.30;58.30;24.20;101180;;;;575124;245;23070;-79
2023/09/16 10:33:41;;;;;;;4.13;1.90;;;25.40;60.70;23.60;101178;;;;569706;245;23076;-79
2023/09/16 10:36:09;;;;;;;4.00;2.03;;;24.60;63.20;23.20;101166;;;;575081;245;23066;-78
2023/09/16 10:38:41;;;;;;;1.93;1.60;;;24.00;65.10;22.90;101171;;;;575274;245;23107;-78
2023/09/16 10:41:07;;;;;;;3.80;2.27;;;23.60;66.90;22.50;101164;;;;579857;245;23130;-80
2023/09/16 10:43:38;;;;;;;2.40;1.60;;;23.20;67.50;22.20;101170;;;;575275;245;23092;-78
2023/09/16 10:46:04;;;;;;;1.83;1.73;;;22.50;70.40;21.90;101160;;;;574904;245;24047;-78
2023/09/16 10:48:32;;;;;;;5.17;2.07;;;22.50;70.40;21.60;101160;;;;574782;245;25148;-77
2023/09/16 10:51:00;;;;;;;5.00;1.73;;;22.20;72.10;21.40;101157;;;;575331;245;24071;-78
2023/09/16 10:53:28;;;;;;;1.80;1.70;;;21.90;74.00;21.30;101140;;;;575290;245;24117;-79
2023/09/16 10:56:29;;;;;;;1.70;1.60;;;21.80;74.20;21.20;101135;;;;568583;245;24070;-78
2023/09/16 10:59:10;;;;;;;3.43;2.00;;;21.70;75.10;21.20;101145;;;;574605;245;24119;-78
2023/09/16 11:01:48;;;;;;;2.40;1.83;;;21.60;76.20;21.10;101134;;;;575012;245;24095;-77
2023/09/16 11:04:16;;;;;;;2.33;2.00;;;21.60;74.80;21.00;101127;;;;574876;245;24086;-79
2023/09/16 11:06:57;;;;;;;5.77;1.90;;;21.50;75.50;20.90;101128;;;;574727;245;24072;-78
2023/09/16 11:09:14;;;;;;;1.87;1.77;;;21.40;75.00;20.80;101130;;;;574129;245;24124;-78
2023/09/16 11:11:42;;;;;;;2.70;1.53;;;21.30;75.90;20.70;101119;;;;583589;244;24046;-78
2023/09/16 11:14:10;;;;;;;3.43;1.47;;;21.20;76.90;20.70;101122;;;;574808;245;24123;-78
2023/09/16 11:16:44;;;;;;;3.93;1.70;;;21.20;77.50;20.70;101113;;;;574902;245;24092;-78
2023/09/16 11:19:15;;;;;;;2.13;1.93;;;21.20;76.90;20.70;101111;;;;574511;245;24115;-78
2023/09/16 11:21:43;;;;;;;1.77;1.50;;;21.10;77.40;20.60;101111;;;;575219;245;24085;-78